Thief River Falls, MN (56701)

10:59 AM CST on March 06, 2015 (GMT -0600)
Thief River Falls Regional | Change Station
CLOSE
Current Station
Airport
Location: Thief River Falls,
Elevation: 1115 ft
Nearby Weather Stations

Elev 1115 ft 48.06 °N, 96.18 °W | Updated 4 minutes ago

Clear
Clear
21 °F
Feels Like 12 °F
N
8
Wind Variable Wind from NW

Today
High -- | Low -- °F
--% Chance of Precip.
Yesterday
High -- | Low -- °F
Precip. -- in
6:56 AM 6:16 PM
Full, 99% visible
Pressure 30.05 in
Visibility 10.0 miles
Clouds Clear
Windchill 12 °F
Dew Point 14 °F
Humidity 74%
Rainfall 0.00 in
Snow Depth Not available.
UV 3 out of 12
Pollen .10 out of 12
Air Quality Not available.
Flu Activity Not available.
METAR KTVF 061655Z AUTO 31007KT 10SM CLR M06/M10 A3005 RMK AO1

More Conditions Fewer Conditions

Pressure 30.05 in
Visibility 10.0 miles
Clouds Clear
Windchill 12 °F
Dew Point 14 °F
Humidity 74%
Rainfall 0.00 in
Snow Depth Not available.
UV 3 out of 12
Pollen .10 out of 12
Air Quality Not available.
Flu Activity Not available.
METAR KTVF 061655Z AUTO 31007KT 10SM CLR M06/M10 A3005 RMK AO1

More Conditions Fewer Conditions

10-Day Weather Forecast

Almanac

Astronomy

Mar. 06, 2015 Rise Set
Actual Time
Civil Twilight
Nautical Twilight
Astronomical Twilight
Moon
Length of Visible Light
Length of Day
Tomorrow will be .
, % of the Moon is Illuminated

Today's Extremes

State Highs State Lows

Community

WunderPhotos

Upload Photos

1,803,336 photos uploaded!

WunderBlogs® & News

Nearby

Air Quality

  Air Quality AQ Index Pollutant
Not available.

Snow Depth

Station Depth Elevation

Earthquake Activity

City Distance Mag. Time & Date
Minimum magnitude displayed is 2.5.

Coastal Water Temperatures

Place Temperature

Nearby Weather Stations